Time;durP1;ratioP1;P1;durP2;ratioP2;P2;SDS_P1;SDS_P2;PMS_P1;PMS_P2;Temp;Humidity;BMP_temperature;BMP_pressure;BME280_temperature;BME280_humidity;BME280_pressure;Samples;Min_cycle;Max_cycle;Signal;HPM_P1;HPM_P2
2023/04/15 00:02:17;;;;;;;4.78;2.67;;;;;;;7.44;100.00;62763.56;6260595;23;20189;-79
2023/04/15 00:04:44;;;;;;;5.13;2.25;;;;;;;7.03;100.00;62728.84;6259428;23;20310;-77
2023/04/15 00:07:12;;;;;;;5.75;2.40;;;;;;;6.89;100.00;62707.34;6262364;23;20200;-78
2023/04/15 00:09:40;;;;;;;6.75;2.05;;;;;;;6.89;100.00;62706.81;6261571;23;20337;-78
2023/04/15 00:12:08;;;;;;;3.85;2.08;;;;;;;6.96;100.00;62714.56;6263764;22;20199;-78
2023/04/15 00:14:36;;;;;;;3.17;2.63;;;;;;;7.01;100.00;62716.66;6265245;23;20227;-79
2023/04/15 00:17:04;;;;;;;2.35;2.15;;;;;;;7.09;100.00;62729.47;6260111;22;20193;-78
2023/04/15 00:19:31;;;;;;;2.05;1.95;;;;;;;7.18;100.00;62741.78;6263323;23;20172;-79
2023/04/15 00:21:58;;;;;;;3.00;1.92;;;;;;;7.23;100.00;62743.91;6261853;22;20501;-79
2023/04/15 00:24:25;;;;;;;2.08;1.95;;;;;;;7.21;100.00;62741.84;6262973;23;20162;-78
2023/04/15 00:26:53;;;;;;;3.47;2.80;;;;;;;7.32;100.00;62753.19;6262755;23;20188;-78
2023/04/15 00:29:20;;;;;;;3.00;2.80;;;;;;;7.35;100.00;62751.75;6263589;23;20165;-80
2023/04/15 00:31:47;;;;;;;2.67;2.53;;;;;;;7.31;100.00;62752.16;6261892;22;20192;-78
2023/04/15 00:34:14;;;;;;;2.42;2.33;;;;;;;7.21;100.00;62744.91;6260556;23;20177;-78
2023/04/15 00:36:41;;;;;;;2.30;2.17;;;;;;;7.21;100.00;62746.91;6262540;22;20245;-78
2023/04/15 00:39:08;;;;;;;5.25;2.75;;;;;;;7.25;100.00;62743.44;6261178;23;20185;-78
2023/04/15 00:41:38;;;;;;;3.28;2.60;;;;;;;7.39;100.00;62762.94;6258805;22;20242;-78
2023/04/15 00:44:07;;;;;;;2.97;2.60;;;;;;;7.40;100.00;62756.91;6262365;23;20179;-79
2023/04/15 00:46:36;;;;;;;2.60;2.40;;;;;;;7.37;100.00;62753.31;6261741;22;20196;-78
2023/04/15 00:49:05;;;;;;;4.22;2.50;;;;;;;7.43;100.00;62764.56;6263101;22;20168;-79
2023/04/15 00:51:34;;;;;;;3.90;2.60;;;;;;;7.36;100.00;62755.31;6262143;23;20196;-79
2023/04/15 00:54:02;;;;;;;2.80;2.13;;;;;;;7.57;100.00;62779.53;6259121;23;20172;-77
2023/04/15 00:56:30;;;;;;;2.50;2.30;;;;;;;7.62;100.00;62784.16;6260990;23;20203;-78
2023/04/15 00:58:57;;;;;;;3.75;2.30;;;;;;;7.58;100.00;62778.00;6259902;23;20161;-78
2023/04/15 01:01:27;;;;;;;2.60;2.40;;;;;;;7.53;100.00;62775.38;6261881;23;20200;-78
2023/04/15 01:03:56;;;;;;;3.60;2.60;;;;;;;7.55;100.00;62777.47;6260657;23;20173;-79
2023/04/15 01:06:23;;;;;;;4.40;2.30;;;;;;;7.60;100.00;62780.09;6261341;23;20169;-77
2023/04/15 01:08:51;;;;;;;2.05;1.95;;;;;;;7.67;100.00;62789.84;6259649;22;20204;-79
2023/04/15 01:11:18;;;;;;;2.15;1.90;;;;;;;7.68;100.00;62790.88;6259501;23;20225;-79
2023/04/15 01:13:47;;;;;;;3.13;2.58;;;;;;;7.76;100.00;62798.63;6261810;22;20530;-78
2023/04/15 01:16:15;;;;;;;2.13;1.95;;;;;;;7.69;100.00;62791.91;6260894;22;20528;-78
2023/04/15 01:18:44;;;;;;;2.08;1.92;;;;;;;7.77;100.00;62802.19;6260893;23;20197;-78
2023/04/15 01:21:12;;;;;;;1.52;1.40;;;;;;;7.78;100.00;62801.19;6260100;23;20200;-79
2023/04/15 01:23:39;;;;;;;2.22;2.03;;;;;;;7.71;100.00;62791.44;6262716;22;20200;-79
2023/04/15 01:26:08;;;;;;;2.00;1.70;;;;;;;7.76;100.00;62801.66;6258057;22;20168;-79
2023/04/15 01:28:36;;;;;;;1.67;1.55;;;;;;;7.74;100.00;62791.47;6260300;22;20188;-78
2023/04/15 01:31:11;;;;;;;6.05;2.03;;;;;;;7.61;100.00;62785.66;6259447;23;20371;-79
2023/04/15 01:33:38;;;;;;;2.10;1.75;;;;;;;7.58;100.00;62777.50;6260117;23;20240;-78
2023/04/15 01:36:07;;;;;;;1.67;1.67;;;;;;;7.58;100.00;62778.00;6259751;23;20188;-79
2023/04/15 01:38:34;;;;;;;2.05;1.70;;;;;;;7.55;100.00;62780.00;6260586;23;20258;-78
2023/04/15 01:41:03;;;;;;;1.70;1.60;;;;;;;7.47;100.00;62766.16;6260967;22;20440;-77
2023/04/15 01:43:31;;;;;;;1.50;1.40;;;;;;;7.36;100.00;62757.31;6261799;23;20482;-79
2023/04/15 01:45:58;;;;;;;1.73;1.63;;;;;;;7.27;100.00;62751.09;6263164;22;20168;-78
2023/04/15 01:48:25;;;;;;;1.73;1.63;;;;;;;7.22;100.00;62745.94;6260454;23;20193;-78
2023/04/15 01:50:53;;;;;;;2.05;1.48;;;;;;;7.09;100.00;62732.00;6263036;22;20524;-79
2023/04/15 01:53:20;;;;;;;2.95;1.60;;;;;;;7.11;100.00;62732.03;6260393;23;20216;-80
2023/04/15 01:55:47;;;;;;;1.95;1.85;;;;;;;7.08;100.00;62731.47;6258335;23;20164;-79
2023/04/15 01:58:14;;;;;;;2.83;1.88;;;;;;;6.97;100.00;62720.13;6259738;22;20231;-77
2023/04/15 02:00:42;;;;;;;1.55;1.45;;;;;;;7.08;100.00;62728.94;6263285;23;20200;-78
2023/04/15 02:03:10;;;;;;;4.50;2.33;;;;;;;7.07;100.00;62730.97;6260651;23;20191;-77
2023/04/15 02:05:37;;;;;;;1.40;1.30;;;;;;;7.07;100.00;62727.94;6259653;22;20195;-78
2023/04/15 02:08:03;;;;;;;2.85;2.25;;;;;;;7.17;100.00;62737.72;6259582;22;20193;-78
2023/04/15 02:10:30;;;;;;;4.00;2.55;;;;;;;7.13;100.00;62736.63;6261335;23;20173;-78
2023/04/15 02:12:57;;;;;;;1.73;1.70;;;;;;;7.17;100.00;62738.25;6259167;23;20200;-80
2023/04/15 02:15:24;;;;;;;2.22;2.13;;;;;;;7.12;100.00;62735.63;6260249;22;20169;-78
2023/04/15 02:17:54;;;;;;;1.67;1.58;;;;;;;7.21;100.00;62739.31;6260158;23;20200;-79
2023/04/15 02:20:21;;;;;;;2.78;1.73;;;;;;;7.17;100.00;62735.19;6263297;23;20196;-80
2023/04/15 02:22:48;;;;;;;2.08;1.70;;;;;;;7.26;100.00;62745.00;6262757;23;20238;-78
2023/04/15 02:25:16;;;;;;;1.92;1.83;;;;;;;7.20;100.00;62743.34;6261174;22;20235;-78
2023/04/15 02:27:43;;;;;;;1.98;1.75;;;;;;;7.14;100.00;62734.63;6261911;22;20193;-79
2023/04/15 02:30:11;;;;;;;1.70;1.60;;;;;;;7.03;100.00;62726.31;6259578;22;20179;-78
2023/04/15 02:32:38;;;;;;;1.83;1.73;;;;;;;7.02;100.00;62727.81;6259144;23;20193;-79
2023/04/15 02:35:08;;;;;;;1.92;1.83;;;;;;;6.88;100.00;62708.31;6261397;23;20169;-78
2023/04/15 02:37:40;;;;;;;1.42;1.42;;;;;;;6.93;100.00;62721.59;6260407;23;20502;-78
2023/04/15 02:40:10;;;;;;;1.42;1.42;;;;;;;6.91;100.00;62711.41;6262777;23;20167;-77
2023/04/15 02:42:37;;;;;;;3.83;1.50;;;;;;;6.86;100.00;62709.31;6260919;23;20185;-79
2023/04/15 02:45:06;;;;;;;1.40;1.30;;;;;;;6.86;100.00;62708.78;6259304;22;20168;-78
2023/04/15 02:47:33;;;;;;;1.23;1.23;;;;;;;6.85;100.00;62705.72;6262352;23;20192;-80
2023/04/15 02:50:00;;;;;;;1.00;1.00;;;;;;;6.86;100.00;62703.72;6261131;22;20183;-79
2023/04/15 02:52:29;;;;;;;2.15;1.35;;;;;;;6.91;100.00;62711.94;6261613;23;20248;-79
2023/04/15 02:54:59;;;;;;;3.03;1.17;;;;;;;6.87;100.00;62707.28;6262647;22;20165;-80
2023/04/15 02:57:27;;;;;;;1.60;1.30;;;;;;;6.90;100.00;62707.84;6260607;23;20199;-79
2023/04/15 02:59:55;;;;;;;2.25;1.38;;;;;;;6.90;100.00;62707.84;6260150;23;20197;-79
2023/04/15 03:02:22;;;;;;;2.65;1.50;;;;;;;6.91;100.00;62711.41;6262167;23;20210;-75
2023/04/15 03:04:49;;;;;;;3.30;2.17;;;;;;;6.60;100.00;62682.47;6257435;23;20165;-78
2023/04/15 03:07:17;;;;;;;4.35;2.30;;;;;;;6.65;100.00;62684.59;6260284;22;20212;-78
2023/04/15 03:09:46;;;;;;;5.47;1.95;;;;;;;6.59;100.00;62678.41;6257243;23;20214;-79
2023/04/15 03:12:13;;;;;;;2.47;2.05;;;;;;;6.68;100.00;62682.63;6260241;23;20193;-78
2023/04/15 03:14:40;;;;;;;2.05;1.92;;;;;;;6.67;100.00;62689.72;6257502;22;20172;-76
2023/04/15 03:17:07;;;;;;;3.55;2.72;;;;;;;6.51;100.00;62672.69;6262201;23;20185;-77
2023/04/15 03:19:39;;;;;;;3.17;2.92;;;;;;;6.55;100.00;62672.28;6258932;22;20195;-81
2023/04/15 03:22:06;;;;;;;3.30;3.00;;;;;;;6.57;100.00;62676.34;6260399;22;20247;-78
2023/04/15 03:24:33;;;;;;;6.28;4.00;;;;;;;6.49;100.00;62668.09;6259745;23;20180;-78
2023/04/15 03:27:05;;;;;;;5.15;4.63;;;;;;;6.41;100.00;62660.38;6258213;22;20195;-79
2023/04/15 03:29:32;;;;;;;6.72;5.20;;;;;;;6.49;100.00;62668.59;6259709;23;20415;-78
2023/04/15 03:31:59;;;;;;;6.93;5.90;;;;;;;6.51;100.00;62665.09;6265039;22;20195;-81
2023/04/15 03:34:25;;;;;;;10.50;5.50;;;;;;;6.45;100.00;62661.97;6258241;22;20470;-75
2023/04/15 03:36:52;;;;;;;8.25;5.25;;;;;;;6.35;100.00;62654.16;6256113;23;20193;-78
2023/04/15 03:39:19;;;;;;;6.07;4.97;;;;;;;6.35;100.00;62651.63;6260736;23;20169;-78
2023/04/15 03:41:46;;;;;;;7.03;5.32;;;;;;;6.34;100.00;62655.16;6259716;22;20209;-78
2023/04/15 03:44:14;;;;;;;5.57;5.00;;;;;;;6.39;100.00;62657.78;6264418;23;20188;-78
2023/04/15 03:46:41;;;;;;;6.32;4.35;;;;;;;6.36;100.00;62655.22;6264427;23;20369;-77
2023/04/15 03:49:08;;;;;;;6.32;4.85;;;;;;;6.32;100.00;62648.03;6260548;22;20169;-78
2023/04/15 03:51:36;;;;;;;7.57;4.85;;;;;;;6.43;100.00;62659.38;6261535;23;20165;-78
2023/04/15 03:54:02;;;;;;;7.05;5.72;;;;;;;6.40;100.00;62653.75;6259168;23;20169;-80
2023/04/15 03:56:29;;;;;;;5.30;4.80;;;;;;;6.32;100.00;62648.56;6259622;23;20172;-79
2023/04/15 03:58:57;;;;;;;5.40;4.45;;;;;;;6.32;100.00;62645.50;6261585;23;20168;-77
2023/04/15 04:01:25;;;;;;;4.95;4.55;;;;;;;6.34;100.00;62652.63;6262901;23;20251;-78
2023/04/15 04:03:52;;;;;;;7.13;5.03;;;;;;;6.26;100.00;62644.91;6260977;23;20176;-78
2023/04/15 04:06:19;;;;;;;4.65;3.88;;;;;;;6.21;100.00;62634.16;6261717;23;20172;-78
2023/04/15 04:08:46;;;;;;;3.10;2.85;;;;;;;6.22;100.00;62633.19;6261993;22;20168;-79
2023/04/15 04:11:13;;;;;;;3.08;2.67;;;;;;;6.23;100.00;62644.31;6261912;22;20171;-79
2023/04/15 04:13:40;;;;;;;3.28;2.47;;;;;;;6.38;100.00;62654.22;6261535;23;20193;-78
2023/04/15 04:16:07;;;;;;;4.07;3.20;;;;;;;6.36;100.00;62652.16;6260697;23;20174;-77
2023/04/15 04:18:36;;;;;;;5.88;2.80;;;;;;;6.47;100.00;62663.50;6260537;22;20196;-77
2023/04/15 04:21:03;;;;;;;4.43;3.40;;;;;;;6.38;100.00;62657.28;6261066;23;20276;-77
2023/04/15 04:23:30;;;;;;;4.97;3.83;;;;;;;6.56;100.00;62672.78;6259578;22;20206;-78
2023/04/15 04:25:57;;;;;;;5.18;4.50;;;;;;;6.62;100.00;62682.03;6259936;22;20179;-78
2023/04/15 04:28:24;;;;;;;9.70;4.85;;;;;;;6.60;100.00;62674.91;6260820;23;20200;-76
2023/04/15 04:30:51;;;;;;;6.03;4.53;;;;;;;6.62;100.00;62681.50;6259305;23;20370;-79
2023/04/15 04:33:18;;;;;;;5.13;4.18;;;;;;;6.70;100.00;62690.25;6259709;22;20337;-77
2023/04/15 04:35:48;;;;;;;6.90;4.82;;;;;;;6.82;100.00;62704.66;6260040;22;20173;-79
2023/04/15 04:38:15;;;;;;;9.20;5.20;;;;;;;6.85;100.00;62705.72;6261095;23;20192;-78
2023/04/15 04:40:42;;;;;;;8.32;5.03;;;;;;;6.88;100.00;62705.78;6260446;23;20165;-78
2023/04/15 04:43:09;;;;;;;6.03;5.15;;;;;;;7.03;100.00;62719.25;6260109;22;20193;-77
2023/04/15 04:45:36;;;;;;;9.13;4.90;;;;;;;7.09;100.00;62732.53;6261807;23;20169;-78
2023/04/15 04:48:05;;;;;;;5.32;4.68;;;;;;;7.18;100.00;62734.19;6262432;23;20200;-80
2023/04/15 04:50:32;;;;;;;4.03;3.72;;;;;;;7.27;100.00;62748.03;6259758;22;20459;-78
2023/04/15 04:53:00;;;;;;;4.38;3.40;;;;;;;7.29;100.00;62750.09;6264004;22;20192;-80
2023/04/15 04:55:28;;;;;;;3.80;3.40;;;;;;;7.50;100.00;62771.78;6259836;22;20232;-78
2023/04/15 04:57:55;;;;;;;5.72;4.57;;;;;;;7.54;100.00;62770.84;6262265;23;20188;-78
2023/04/15 05:00:22;;;;;;;7.70;4.63;;;;;;;7.64;100.00;62789.28;6258199;23;20228;-75
2023/04/15 05:02:49;;;;;;;6.07;4.70;;;;;;;7.72;100.00;62791.94;6261732;22;20208;-78
2023/04/15 05:05:16;;;;;;;9.30;5.45;;;;;;;7.79;100.00;62801.72;6261773;22;20177;-78
2023/04/15 05:07:43;;;;;;;9.63;5.57;;;;;;;7.73;100.00;62796.03;6259111;23;20208;-76
2023/04/15 05:10:13;;;;;;;6.60;5.82;;;;;;;7.83;100.00;62800.78;6258906;23;20168;-78
2023/04/15 05:12:40;;;;;;;5.68;5.15;;;;;;;7.96;100.00;62817.25;6261356;23;20204;-77
2023/04/15 05:15:10;;;;;;;8.77;5.38;;;;;;;8.11;100.00;62832.72;6259732;22;20165;-79
2023/04/15 05:17:37;;;;;;;5.75;5.03;;;;;;;8.23;100.00;62847.16;6262216;23;20248;-78
2023/04/15 05:20:04;;;;;;;11.75;5.43;;;;;;;8.31;100.00;62852.91;6262907;23;20441;-78
2023/04/15 05:22:32;;;;;;;8.27;5.25;;;;;;;8.48;100.00;62873.00;6260770;22;20325;-80
2023/04/15 05:24:59;;;;;;;11.20;5.32;;;;;;;8.57;100.00;62882.28;6264202;23;20191;-77
2023/04/15 05:27:27;;;;;;;5.53;4.90;;;;;;;8.39;100.00;62863.69;6263007;23;20189;-78
2023/04/15 05:29:55;;;;;;;7.72;4.90;;;;;;;8.50;100.00;62875.06;6262486;23;20172;-79
2023/04/15 05:32:22;;;;;;;6.55;4.30;;;;;;;8.36;94.94;62863.13;6260964;23;20219;-76
2023/04/15 05:34:48;;;;;;;8.38;4.10;;;;;;;8.44;93.82;62873.44;6263172;23;20481;-79
2023/04/15 05:37:15;;;;;;;6.28;3.90;;;;;;;8.47;93.85;62869.44;6261192;23;20204;-79
2023/04/15 05:39:43;;;;;;;4.68;4.07;;;;;;;8.62;94.06;62886.94;6260898;23;20168;-78
2023/04/15 05:42:10;;;;;;;4.93;3.92;;;;;;;8.72;94.90;62892.72;6259708;22;20255;-78
2023/04/15 05:44:38;;;;;;;7.65;5.55;;;;;;;8.70;94.02;62897.72;6260326;22;20192;-78
2023/04/15 05:47:06;;;;;;;7.80;5.20;;;;;;;8.79;95.61;62901.97;6261876;22;20193;-79
2023/04/15 05:49:33;;;;;;;5.22;4.68;;;;;;;8.79;94.34;62902.47;6263684;23;20173;-79
2023/04/15 05:52:00;;;;;;;5.68;5.07;;;;;;;9.02;91.83;62928.28;6261776;22;20210;-77
2023/04/15 05:54:27;;;;;;;5.25;4.22;;;;;;;9.19;88.41;62943.31;6258980;23;20161;-79
2023/04/15 05:56:55;;;;;;;5.22;4.28;;;;;;;9.32;85.69;62959.28;6261249;23;20188;-77
2023/04/15 05:59:22;;;;;;;6.97;4.07;;;;;;;9.53;85.50;62980.47;6260733;23;20180;-79
2023/04/15 06:01:50;;;;;;;4.90;3.85;;;;;;;9.69;82.94;62997.53;6259814;23;20227;-78
2023/04/15 06:04:17;;;;;;;4.18;2.90;;;;;;;9.83;80.23;63009.47;6261470;22;20171;-77
2023/04/15 06:06:45;;;;;;;3.35;3.13;;;;;;;9.76;78.36;63004.78;6261315;22;20192;-79
2023/04/15 06:09:12;;;;;;;3.47;3.15;;;;;;;9.86;79.83;63015.13;6258919;23;20169;-78
2023/04/15 06:11:40;;;;;;;4.55;3.08;;;;;;;9.75;79.64;62998.66;6259162;23;20189;-75
2023/04/15 06:14:06;;;;;;;4.18;3.78;;;;;;;9.66;81.70;62988.84;6259376;23;20169;-78
2023/04/15 06:16:35;;;;;;;4.22;3.58;;;;;;;9.70;83.80;62998.06;6259492;23;20184;-78
2023/04/15 06:19:03;;;;;;;4.47;3.25;;;;;;;9.67;79.15;63000.03;6260736;22;20186;-79
2023/04/15 06:21:31;;;;;;;3.55;2.40;;;;;;;9.73;78.36;63001.16;6260344;23;20540;-77
2023/04/15 06:24:00;;;;;;;3.05;2.75;;;;;;;9.88;77.90;63016.69;6259749;23;20210;-79
2023/04/15 06:26:27;;;;;;;3.35;2.90;;;;;;;10.03;79.37;63032.72;6264636;22;20169;-79
2023/04/15 06:28:55;;;;;;;4.30;2.88;;;;;;;10.19;77.61;63049.28;6261953;23;20168;-78
2023/04/15 06:31:22;;;;;;;3.65;3.35;;;;;;;10.29;76.40;63057.09;6260000;22;20359;-78
2023/04/15 06:33:49;;;;;;;4.97;3.20;;;;;;;10.30;75.90;63058.13;6260074;22;20284;-78
2023/04/15 06:36:18;;;;;;;4.47;2.55;;;;;;;10.00;74.17;63029.09;6259907;22;20184;-76
2023/04/15 06:38:45;;;;;;;4.70;2.53;;;;;;;9.87;76.52;63015.66;6261302;23;20169;-79
2023/04/15 06:41:12;;;;;;;2.95;2.20;;;;;;;10.07;79.90;63031.25;6260814;23;20179;-77
2023/04/15 06:43:39;;;;;;;3.38;2.58;;;;;;;10.21;79.45;63051.38;6261413;22;20189;-79
2023/04/15 06:46:06;;;;;;;4.68;2.42;;;;;;;10.33;76.19;63063.25;6259940;23;20169;-77
2023/04/15 06:48:33;;;;;;;5.38;2.80;;;;;;;10.48;77.44;63078.78;6259775;23;20185;-76
2023/04/15 06:51:00;;;;;;;2.63;2.42;;;;;;;10.24;77.03;63054.47;6258814;23;20425;-76
2023/04/15 06:53:28;;;;;;;3.35;2.42;;;;;;;10.08;77.08;63029.72;6259103;23;20193;-79
2023/04/15 06:55:55;;;;;;;5.07;2.55;;;;;;;10.18;78.99;63045.19;6263547;23;20169;-79
2023/04/15 06:58:22;;;;;;;4.47;2.50;;;;;;;10.37;79.11;63067.41;6261095;23;20188;-78
2023/04/15 07:00:49;;;;;;;2.97;2.78;;;;;;;10.38;77.01;63071.50;6259099;23;20498;-77
2023/04/15 07:03:16;;;;;;;2.92;2.58;;;;;;;10.38;78.16;63071.50;6259873;23;20208;-78
2023/04/15 07:05:43;;;;;;;3.90;2.67;;;;;;;10.58;78.21;63091.66;6261073;22;20369;-78
2023/04/15 07:08:11;;;;;;;4.55;2.97;;;;;;;10.70;77.82;63101.03;6260516;23;20226;-79
2023/04/15 07:10:39;;;;;;;3.47;2.90;;;;;;;10.71;77.58;63100.03;6261921;23;20211;-76
2023/04/15 07:13:07;;;;;;;3.05;2.70;;;;;;;10.77;76.10;63105.75;6259173;23;20192;-77
2023/04/15 07:15:34;;;;;;;6.00;3.08;;;;;;;10.70;75.80;63099.00;6261160;23;20404;-79
2023/04/15 07:18:01;;;;;;;5.50;2.30;;;;;;;10.90;76.29;63127.34;6262817;22;20196;-79
2023/04/15 07:20:28;;;;;;;4.25;2.80;;;;;;;10.98;76.98;63133.09;6262987;23;20176;-78
2023/04/15 07:22:56;;;;;;;2.58;2.38;;;;;;;11.07;72.88;63141.88;6266470;22;20230;-78
2023/04/15 07:25:23;;;;;;;3.20;2.90;;;;;;;11.34;71.79;63167.28;6265773;23;20419;-76
2023/04/15 07:27:53;;;;;;;4.25;3.08;;;;;;;11.40;73.58;63170.97;6261162;23;20188;-79
2023/04/15 07:30:19;;;;;;;4.03;3.17;;;;;;;11.51;71.08;63185.41;6262434;23;20422;-79
2023/04/15 07:32:46;;;;;;;4.13;3.13;;;;;;;11.49;67.14;63182.84;6261062;22;20201;-79
2023/04/15 07:35:13;;;;;;;3.38;3.08;;;;;;;11.71;66.93;63205.66;6262460;23;20173;-79
2023/04/15 07:37:42;;;;;;;2.60;2.35;;;;;;;11.67;67.51;63200.97;6263804;23;20193;-79
2023/04/15 07:40:10;;;;;;;3.80;2.38;;;;;;;11.74;66.12;63210.78;6262792;23;20492;-80
2023/04/15 07:42:37;;;;;;;4.53;2.15;;;;;;;11.97;65.85;63232.06;6263932;22;20216;-79
2023/04/15 07:45:07;;;;;;;2.70;1.90;;;;;;;12.13;65.01;63248.66;6262679;22;20173;-79
2023/04/15 07:47:34;;;;;;;2.30;1.92;;;;;;;12.27;64.11;63263.66;6262686;23;20381;-78
2023/04/15 07:50:01;;;;;;;2.22;2.10;;;;;;;12.19;61.04;63257.94;6262488;23;20492;-80
2023/04/15 07:52:27;;;;;;;3.83;2.88;;;;;;;12.31;62.85;63267.81;6262915;22;20193;-77
2023/04/15 07:54:54;;;;;;;4.10;2.60;;;;;;;12.36;63.58;63275.56;6261445;23;20399;-79
2023/04/15 07:57:21;;;;;;;2.70;2.50;;;;;;;12.47;63.16;63284.41;6260943;23;20196;-78
2023/04/15 07:59:48;;;;;;;2.75;2.60;;;;;;;12.29;62.20;63267.78;6263174;22;20520;-78
2023/04/15 08:02:17;;;;;;;3.33;3.03;;;;;;;12.32;63.75;63270.91;6261245;22;20411;-79
2023/04/15 08:04:43;;;;;;;4.03;3.47;;;;;;;12.43;64.14;63284.84;6264969;23;20165;-79
2023/04/15 08:07:10;;;;;;;4.90;3.03;;;;;;;12.45;63.38;63279.78;6260979;22;20548;-79
2023/04/15 08:09:37;;;;;;;6.07;3.08;;;;;;;12.55;60.90;63292.19;6261297;23;20529;-77
2023/04/15 08:12:06;;;;;;;3.20;2.90;;;;;;;12.44;60.79;63281.28;6261737;22;20517;-81
2023/04/15 08:14:33;;;;;;;3.80;3.45;;;;;;;12.37;60.06;63271.47;6262397;22;20196;-79
2023/04/15 08:17:00;;;;;;;6.78;2.90;;;;;;;12.27;62.45;63261.13;6265222;23;20196;-79
2023/04/15 08:19:28;;;;;;;4.90;2.72;;;;;;;12.51;62.26;63285.50;6264392;22;20169;-79
2023/04/15 08:21:55;;;;;;;3.00;2.65;;;;;;;12.41;60.11;63280.22;6262342;22;20192;-77
2023/04/15 08:24:22;;;;;;;3.63;2.30;;;;;;;12.51;60.37;63288.06;6262747;23;20161;-79
2023/04/15 08:26:50;;;;;;;5.95;1.75;;;;;;;12.78;59.49;63321.69;6262350;22;20188;-79
2023/04/15 08:29:17;;;;;;;2.40;2.20;;;;;;;12.94;57.23;63332.63;6261937;23;20175;-78
2023/04/15 08:31:44;;;;;;;5.47;2.10;;;;;;;13.17;54.58;63355.97;6262473;23;20189;-79
2023/04/15 08:34:12;;;;;;;3.33;2.33;;;;;;;13.35;54.36;63372.09;6267097;22;20211;-81
2023/04/15 08:36:40;;;;;;;2.35;1.90;;;;;;;13.46;51.65;63386.59;6262546;23;20184;-79
2023/04/15 08:39:07;;;;;;;2.10;1.90;;;;;;;13.48;51.97;63393.25;6261967;22;20168;-77
2023/04/15 08:41:40;;;;;;;4.40;2.20;;;;;;;13.55;50.97;63395.41;6262853;23;20173;-79
2023/04/15 08:44:07;;;;;;;4.80;1.90;;;;;;;13.63;51.55;63401.16;6263826;23;20189;-80
2023/04/15 08:46:34;;;;;;;2.90;2.15;;;;;;;13.83;52.98;63424.47;6265853;23;20173;-79
2023/04/15 08:49:04;;;;;;;2.85;2.03;;;;;;;14.01;49.99;63445.72;6263824;23;20172;-78
2023/04/15 08:51:32;;;;;;;1.83;1.73;;;;;;;14.11;51.17;63455.59;6265435;22;20168;-79
2023/04/15 08:54:01;;;;;;;2.08;1.67;;;;;;;14.23;50.83;63468.56;6261148;23;20191;-80
2023/04/15 08:56:31;;;;;;;3.03;1.35;;;;;;;14.50;49.90;63496.63;6265604;22;20179;-76
2023/04/15 08:58:59;;;;;;;2.20;2.00;;;;;;;14.19;49.24;63461.84;6264127;23;20169;-78
2023/04/15 09:01:26;;;;;;;4.63;1.55;;;;;;;14.18;50.69;63460.28;6261025;23;20176;-78
2023/04/15 09:03:54;;;;;;;2.40;1.88;;;;;;;14.24;51.19;63469.59;6262881;22;20244;-78
2023/04/15 09:06:22;;;;;;;2.45;1.33;;;;;;;14.31;47.96;63471.75;6263155;23;20223;-81
2023/04/15 09:08:50;;;;;;;4.50;1.73;;;;;;;14.46;50.96;63487.34;6266589;23;20473;-79
2023/04/15 09:11:22;;;;;;;2.15;1.77;;;;;;;14.73;50.27;63517.94;6264548;23;20364;-80
2023/04/15 09:13:49;;;;;;;2.67;1.45;;;;;;;14.71;46.40;63517.91;6263575;23;20180;-78
2023/04/15 09:16:16;;;;;;;3.13;1.75;;;;;;;14.73;46.33;63520.00;6261878;22;20169;-77
2023/04/15 09:18:43;;;;;;;2.47;2.00;;;;;;;14.74;47.61;63521.53;6262356;22;20242;-81
2023/04/15 09:21:12;;;;;;;1.80;1.70;;;;;;;14.80;47.21;63524.69;6262960;22;20196;-79
2023/04/15 09:23:43;;;;;;;2.20;1.75;;;;;;;14.98;46.89;63540.81;6266331;23;20253;-80
2023/04/15 09:26:10;;;;;;;2.35;1.25;;;;;;;15.16;45.99;63564.66;6264167;23;20212;-79
2023/04/15 09:28:43;;;;;;;1.08;1.08;;;;;;;15.17;42.90;63565.19;6264966;22;20192;-79
2023/04/15 09:31:10;;;;;;;2.50;1.33;;;;;;;15.42;43.88;63589.16;6261256;23;20160;-79
2023/04/15 09:33:54;;;;;;;1.63;1.35;;;;;;;15.41;43.67;63590.66;6263548;23;20521;-79
2023/04/15 09:36:23;;;;;;;1.48;1.20;;;;;;;15.33;41.25;63576.69;6260527;23;20175;-79
2023/04/15 09:38:56;;;;;;;1.70;1.60;;;;;;;15.56;43.31;63608.31;6261815;23;20165;-78
2023/04/15 09:41:23;;;;;;;1.92;1.20;;;;;;;15.41;42.48;63592.72;6263973;23;20183;-80
2023/04/15 09:43:52;;;;;;;1.65;1.55;;;;;;;15.73;41.48;63618.28;6262519;23;20396;-80
2023/04/15 09:46:19;;;;;;;1.38;1.10;;;;;;;15.75;40.57;63623.47;6261204;23;20176;-79
2023/04/15 09:48:47;;;;;;;0.63;0.45;;;;;;;15.93;37.06;63647.31;6265229;22;20184;-77
2023/04/15 09:51:14;;;;;;;2.13;1.02;;;;;;;16.22;37.48;63671.28;6263207;23;20482;-78
2023/04/15 09:53:41;;;;;;;0.52;0.52;;;;;;;16.31;38.02;63678.59;6262502;22;20185;-80
2023/04/15 09:56:09;;;;;;;1.00;0.65;;;;;;;16.68;35.76;63722.25;6262600;22;20169;-80
2023/04/15 09:58:41;;;;;;;1.70;1.10;;;;;;;16.82;38.99;63736.28;6261848;23;20501;-79
2023/04/15 10:01:10;;;;;;;1.33;1.30;;;;;;;17.43;39.14;63802.34;6266697;23;20160;-81
2023/04/15 10:03:41;;;;;;;3.33;1.65;;;;;;;17.88;38.12;63846.66;6263840;23;20210;-79
2023/04/15 10:06:09;;;;;;;1.80;1.25;;;;;;;18.12;36.41;63869.09;6265078;23;20383;-80
2023/04/15 10:08:36;;;;;;;1.85;1.35;;;;;;;17.65;38.78;63820.16;6265607;22;20204;-78
2023/04/15 10:11:03;;;;;;;0.80;0.80;;;;;;;17.54;38.69;63813.84;6262619;23;20168;-79
2023/04/15 10:13:34;;;;;;;1.25;1.20;;;;;;;17.81;39.37;63839.38;6266622;23;20199;-79
2023/04/15 10:16:06;;;;;;;1.17;1.08;;;;;;;17.88;37.15;63844.09;6265465;23;20160;-79
2023/04/15 10:18:36;;;;;;;3.47;1.02;;;;;;;17.86;36.64;63844.56;6262831;23;20200;-80
2023/04/15 10:21:04;;;;;;;2.67;1.23;;;;;;;18.03;38.07;63861.78;6265092;22;20236;-81
2023/04/15 10:23:33;;;;;;;1.60;1.30;;;;;;;17.99;38.41;63857.59;6264009;22;20211;-80
2023/04/15 10:26:00;;;;;;;4.03;1.20;;;;;;;18.22;35.92;63879.50;6261541;23;20232;-78
2023/04/15 10:28:27;;;;;;;2.88;1.15;;;;;;;17.70;37.63;63827.41;6260546;23;20184;-79
2023/04/15 10:30:55;;;;;;;0.85;0.85;;;;;;;17.80;37.99;63837.81;6262656;22;20168;-79
2023/04/15 10:33:24;;;;;;;1.27;1.08;;;;;;;18.04;35.18;63860.22;6259829;22;20215;-77
2023/04/15 10:35:55;;;;;;;1.30;1.13;;;;;;;17.90;34.40;63848.75;6261866;22;20156;-79
2023/04/15 10:38:41;;;;;;;2.42;1.10;;;;;;;18.47;34.85;63907.09;6263255;23;20377;-78
2023/04/15 10:41:16;;;;;;;1.13;0.80;;;;;;;18.50;33.26;63910.25;6262816;23;20202;-77
2023/04/15 10:43:50;;;;;;;1.05;1.05;;;;;;;18.41;34.53;63901.38;6260721;23;20603;-76
2023/04/15 10:46:19;;;;;;;1.33;1.02;;;;;;;18.57;36.26;63918.03;6261511;23;20205;-80
2023/04/15 10:48:51;;;;;;;2.22;1.35;;;;;;;18.31;36.03;63883.19;6261250;22;20172;-79
2023/04/15 10:51:30;;;;;;;1.10;1.00;;;;;;;18.56;35.14;63916.47;6261693;23;20223;-80
2023/04/15 10:53:58;;;;;;;0.65;0.60;;;;;;;18.95;33.04;63954.53;6266590;23;20175;-79
2023/04/15 10:56:25;;;;;;;2.28;0.90;;;;;;;19.04;31.77;63963.94;6265489;22;20172;-78
2023/04/15 10:58:53;;;;;;;0.57;0.50;;;;;;;18.92;27.57;63954.00;6262011;23;20172;-79
2023/04/15 11:01:22;;;;;;;1.38;0.47;;;;;;;18.87;28.44;63943.63;6263218;22;20175;-77
2023/04/15 11:03:50;;;;;;;0.88;0.47;;;;;;;18.43;27.47;63906.56;6267502;22;20202;-81
2023/04/15 11:06:18;;;;;;;1.65;0.65;;;;;;;18.52;27.65;63910.25;6266443;22;20172;-79
2023/04/15 11:09:01;;;;;;;1.08;0.60;;;;;;;18.39;28.38;63897.22;6263589;23;20263;-77
2023/04/15 11:12:09;;;;;;;2.92;0.43;;;;;;;18.01;28.37;63859.69;6264768;23;20224;-79
2023/04/15 11:14:42;;;;;;;3.85;0.57;;;;;;;18.14;28.33;63873.75;6269394;23;20222;-81
2023/04/15 11:17:09;;;;;;;0.20;0.20;;;;;;;18.07;29.05;63863.34;6262505;23;20192;-79
2023/04/15 11:19:51;;;;;;;0.70;0.70;;;;;;;18.12;28.32;63869.09;6264275;22;20169;-81
2023/04/15 11:22:19;;;;;;;1.38;0.57;;;;;;;18.26;28.51;63888.81;6265441;22;20199;-79
2023/04/15 11:24:51;;;;;;;0.52;0.17;;;;;;;18.70;27.90;63931.09;6266137;23;20213;-79
2023/04/15 11:27:22;;;;;;;0.45;0.45;;;;;;;18.83;28.33;63942.56;6267775;22;20180;-80
2023/04/15 11:29:49;;;;;;;0.70;0.70;;;;;;;18.45;28.44;63902.47;6264177;22;20228;-78
2023/04/15 11:32:16;;;;;;;0.65;0.60;;;;;;;18.29;28.27;63889.38;6262167;23;20210;-80
2023/04/15 11:34:47;;;;;;;0.80;0.80;;;;;;;18.75;28.16;63933.72;6264715;23;20175;-80
2023/04/15 11:37:14;;;;;;;0.50;0.50;;;;;;;18.93;28.30;63955.56;6266048;23;20184;-77
2023/04/15 11:39:43;;;;;;;2.35;0.50;;;;;;;18.99;27.52;63956.16;6264853;23;20544;-80